createdAt,value
2018-12-08T00:00:01.115Z,1.90
2018-12-08T00:00:33.830Z,1.52
2018-12-08T00:01:06.594Z,2.05
2018-12-08T00:01:39.527Z,2.58
2018-12-08T00:02:12.366Z,2.42
2018-12-08T00:02:44.999Z,1.37
2018-12-08T00:03:17.778Z,4.08
2018-12-08T00:03:50.514Z,2.08
2018-12-08T00:04:23.163Z,1.77
2018-12-08T00:04:55.842Z,2.35
2018-12-08T00:05:28.450Z,1.50
2018-12-08T00:06:01.063Z,1.60
2018-12-08T00:06:33.653Z,1.25
2018-12-08T00:07:06.241Z,3.60
2018-12-08T00:07:38.896Z,3.60
2018-12-08T00:08:11.526Z,2.25
2018-12-08T00:08:44.122Z,1.95
2018-12-08T00:09:16.720Z,4.40
2018-12-08T00:09:49.302Z,3.37
2018-12-08T00:10:22.062Z,2.00
2018-12-08T00:10:54.653Z,2.08
2018-12-08T00:11:27.246Z,1.77
2018-12-08T00:11:59.956Z,3.47
2018-12-08T00:12:32.546Z,2.75
2018-12-08T00:13:05.168Z,4.17
2018-12-08T00:13:37.759Z,1.70
2018-12-08T00:14:10.815Z,1.82
2018-12-08T00:14:43.821Z,2.17
2018-12-08T00:15:20.762Z,3.30
2018-12-08T00:15:53.387Z,1.77
2018-12-08T00:16:28.920Z,2.95
2018-12-08T00:17:01.660Z,1.87
2018-12-08T00:17:34.283Z,1.60
2018-12-08T00:18:06.891Z,2.98
2018-12-08T00:18:39.499Z,2.42
2018-12-08T00:19:12.388Z,2.47
2018-12-08T00:19:45.331Z,1.92
2018-12-08T00:20:17.928Z,6.00
2018-12-08T00:20:50.516Z,1.67
2018-12-08T00:21:23.393Z,2.22
2018-12-08T00:21:55.982Z,1.82
2018-12-08T00:22:28.595Z,2.37
2018-12-08T00:23:01.169Z,2.27
2018-12-08T00:23:33.779Z,2.87
2018-12-08T00:24:06.502Z,1.90
2018-12-08T00:24:39.088Z,1.30
2018-12-08T00:25:11.687Z,1.80
2018-12-08T00:25:44.303Z,1.50
2018-12-08T00:26:17.182Z,1.40
2018-12-08T00:26:49.854Z,4.42
2018-12-08T00:27:22.447Z,1.60
2018-12-08T00:27:55.028Z,3.35
2018-12-08T00:28:28.511Z,1.20
2018-12-08T00:29:01.122Z,3.10
2018-12-08T00:29:33.702Z,1.77
2018-12-08T00:30:17.784Z,2.30
2018-12-08T00:31:02.236Z,1.62
2018-12-08T00:31:49.794Z,2.02
2018-12-08T00:32:22.385Z,1.20
2018-12-08T00:32:54.965Z,1.60
2018-12-08T00:33:27.558Z,1.20
2018-12-08T00:34:00.711Z,1.30
2018-12-08T00:34:33.758Z,1.40
2018-12-08T00:35:06.365Z,2.00
2018-12-08T00:35:38.979Z,1.70
2018-12-08T00:36:11.583Z,1.75
2018-12-08T00:36:44.590Z,1.20
2018-12-08T00:37:17.558Z,1.50
2018-12-08T00:37:50.181Z,1.70
2018-12-08T00:38:22.870Z,1.92
2018-12-08T00:38:55.473Z,2.15
2018-12-08T00:39:28.074Z,3.25
2018-12-08T00:40:00.696Z,1.70
2018-12-08T00:40:33.298Z,3.92
2018-12-08T00:41:06.382Z,1.30
2018-12-08T00:41:39.004Z,1.32
2018-12-08T00:42:11.581Z,3.10
2018-12-08T00:42:44.177Z,1.90
2018-12-08T00:43:16.763Z,1.20
2018-12-08T00:43:49.349Z,1.45
2018-12-08T00:44:21.931Z,3.98
2018-12-08T00:44:55.141Z,4.78
2018-12-08T00:45:27.742Z,2.25
2018-12-08T00:46:00.366Z,2.50
2018-12-08T00:46:33.548Z,1.77
2018-12-08T00:47:06.170Z,4.62
2018-12-08T00:47:38.792Z,2.83
2018-12-08T00:48:11.380Z,1.20
2018-12-08T00:48:45.200Z,1.37
2018-12-08T00:49:17.805Z,1.75
2018-12-08T00:49:50.423Z,2.08
2018-12-08T00:50:24.353Z,1.20
2018-12-08T00:50:56.958Z,1.17
2018-12-08T00:51:29.582Z,1.70
2018-12-08T00:52:02.754Z,1.30
2018-12-08T00:52:35.523Z,1.25
2018-12-08T00:53:08.147Z,3.70
2018-12-08T00:53:41.315Z,3.47
2018-12-08T00:54:13.929Z,4.15
2018-12-08T00:54:46.525Z,1.75
2018-12-08T00:55:19.161Z,1.32
2018-12-08T00:55:52.041Z,8.50
2018-12-08T00:56:24.647Z,2.15
2018-12-08T00:56:57.253Z,5.00
2018-12-08T00:57:29.867Z,1.55
2018-12-08T00:58:02.859Z,1.85
2018-12-08T00:58:35.432Z,3.55
2018-12-08T00:59:08.033Z,1.52
2018-12-08T00:59:40.630Z,1.40
2018-12-08T01:00:13.350Z,1.30
2018-12-08T01:00:45.935Z,1.22
2018-12-08T01:01:19.036Z,1.22
2018-12-08T01:01:51.671Z,3.77
2018-12-08T01:02:24.384Z,3.12
2018-12-08T01:02:57.102Z,1.67
2018-12-08T01:03:30.158Z,1.00
2018-12-08T01:04:02.782Z,5.87
2018-12-08T01:04:35.362Z,1.37
2018-12-08T01:05:08.030Z,2.65
2018-12-08T01:05:41.483Z,1.10
2018-12-08T01:06:14.130Z,2.58
2018-12-08T01:06:46.842Z,2.92
2018-12-08T01:07:19.469Z,1.45
2018-12-08T01:07:52.887Z,1.52
2018-12-08T01:08:25.503Z,1.90
2018-12-08T01:08:58.788Z,4.40
2018-12-08T01:09:31.393Z,4.50
2018-12-08T01:10:05.091Z,1.90
2018-12-08T01:10:37.681Z,1.82
2018-12-08T01:11:10.293Z,1.85
2018-12-08T01:11:42.917Z,1.37
2018-12-08T01:12:16.783Z,1.85
2018-12-08T01:12:49.415Z,1.90
2018-12-08T01:13:22.015Z,1.20
2018-12-08T01:13:55.148Z,1.40
2018-12-08T01:14:27.724Z,3.55
2018-12-08T01:15:00.335Z,2.55
2018-12-08T01:15:32.947Z,1.98
2018-12-08T01:16:05.569Z,2.95
2018-12-08T01:16:38.446Z,2.10
2018-12-08T01:17:11.209Z,1.10
2018-12-08T01:17:44.216Z,1.30
2018-12-08T01:18:16.824Z,1.42
2018-12-08T01:18:49.436Z,1.20
2018-12-08T01:19:22.042Z,1.22
2018-12-08T01:19:55.014Z,1.52
2018-12-08T01:20:27.621Z,1.47
2018-12-08T01:21:00.233Z,1.77
2018-12-08T01:21:32.862Z,1.22
2018-12-08T01:22:06.516Z,1.35
2018-12-08T01:22:39.135Z,5.95
2018-12-08T01:23:11.772Z,3.90
2018-12-08T01:23:44.402Z,1.85
2018-12-08T01:24:16.989Z,2.45
2018-12-08T01:24:49.595Z,3.47
2018-12-08T01:25:22.430Z,1.45
2018-12-08T01:25:55.189Z,2.55
2018-12-08T01:26:27.849Z,1.80
2018-12-08T01:27:00.449Z,2.12
2018-12-08T01:27:33.033Z,3.83
2018-12-08T01:28:06.044Z,2.00
2018-12-08T01:28:38.649Z,2.55
2018-12-08T01:29:11.609Z,2.30
2018-12-08T01:29:44.181Z,3.87
2018-12-08T01:30:16.782Z,3.92
2018-12-08T01:30:49.544Z,1.60
2018-12-08T01:31:22.509Z,1.82
2018-12-08T01:31:56.371Z,3.17
2018-12-08T01:32:29.116Z,1.75
2018-12-08T01:33:01.781Z,1.67
2018-12-08T01:33:34.422Z,6.62
2018-12-08T01:34:07.074Z,2.37
2018-12-08T01:34:39.793Z,3.45
2018-12-08T01:35:12.388Z,1.70
2018-12-08T01:35:44.980Z,1.45
2018-12-08T01:36:17.564Z,3.47
2018-12-08T01:36:50.395Z,2.35
2018-12-08T01:37:23.100Z,2.42
2018-12-08T01:37:55.731Z,1.30
2018-12-08T01:38:28.434Z,3.10
2018-12-08T01:39:01.058Z,1.40
2018-12-08T01:39:33.644Z,3.85
2018-12-08T01:40:06.382Z,1.82
2018-12-08T01:40:38.981Z,7.25
2018-12-08T01:41:11.616Z,4.15
2018-12-08T01:41:44.209Z,3.27
2018-12-08T01:42:16.800Z,2.75
2018-12-08T01:42:55.107Z,4.08
2018-12-08T01:43:27.685Z,1.30
2018-12-08T01:44:00.292Z,2.10
2018-12-08T01:44:32.898Z,2.95
2018-12-08T01:45:05.725Z,6.22
2018-12-08T01:45:38.369Z,2.40
2018-12-08T01:46:10.982Z,5.15
2018-12-08T01:46:43.580Z,6.33
2018-12-08T01:47:16.165Z,3.17
2018-12-08T01:47:48.746Z,7.90
2018-12-08T01:48:21.321Z,1.37
2018-12-08T01:48:53.899Z,3.80
2018-12-08T01:49:26.489Z,2.12
2018-12-08T01:49:59.104Z,3.92
2018-12-08T01:50:31.777Z,3.62
2018-12-08T01:51:04.438Z,4.25
2018-12-08T01:51:37.079Z,1.75
2018-12-08T01:52:09.780Z,5.40
2018-12-08T01:52:42.388Z,3.98
2018-12-08T01:53:14.988Z,5.12
2018-12-08T01:53:47.642Z,1.52
2018-12-08T01:54:20.367Z,6.92
2018-12-08T01:54:53.038Z,2.90
2018-12-08T01:55:25.790Z,3.58
2018-12-08T01:55:58.664Z,3.52
2018-12-08T01:56:31.326Z,2.85
2018-12-08T01:57:03.959Z,3.15
2018-12-08T01:57:36.591Z,7.15
2018-12-08T01:58:09.230Z,3.62
2018-12-08T01:58:41.881Z,2.42
2018-12-08T01:59:14.527Z,3.95
2018-12-08T01:59:47.160Z,5.50
2018-12-08T02:00:19.815Z,5.95
2018-12-08T02:00:52.489Z,4.90
2018-12-08T02:01:25.196Z,4.87
2018-12-08T02:01:57.846Z,15.80
2018-12-08T02:02:30.461Z,5.05
2018-12-08T02:03:03.173Z,3.52
2018-12-08T02:03:35.792Z,8.65
2018-12-08T02:04:08.413Z,7.50
2018-12-08T02:04:41.039Z,9.93
2018-12-08T02:05:13.664Z,7.03
2018-12-08T02:05:46.284Z,4.47
2018-12-08T02:06:19.059Z,3.67
2018-12-08T02:06:51.801Z,6.35
2018-12-08T02:07:24.461Z,8.15
2018-12-08T02:07:57.085Z,4.45
2018-12-08T02:08:29.703Z,11.50
2018-12-08T02:09:02.448Z,5.75
2018-12-08T02:09:35.067Z,5.15
2018-12-08T02:10:07.714Z,5.33
2018-12-08T02:10:40.461Z,5.75
2018-12-08T02:11:13.100Z,9.75
2018-12-08T02:11:45.727Z,8.75
2018-12-08T02:12:18.371Z,8.35
2018-12-08T02:12:51.027Z,13.62
2018-12-08T02:13:23.642Z,8.80
2018-12-08T02:13:56.258Z,4.83
2018-12-08T02:14:28.885Z,10.55
2018-12-08T02:15:01.495Z,18.85
2018-12-08T02:15:34.116Z,7.37
2018-12-08T02:16:06.727Z,5.33
2018-12-08T02:16:39.368Z,7.78
2018-12-08T02:17:11.999Z,6.87
2018-12-08T02:17:44.752Z,5.80
2018-12-08T02:18:17.389Z,6.65
2018-12-08T02:18:50.006Z,6.35
2018-12-08T02:19:22.740Z,18.35
2018-12-08T02:19:55.370Z,9.73
2018-12-08T02:20:27.990Z,3.92
2018-12-08T02:21:00.637Z,12.20
2018-12-08T02:21:33.286Z,11.65
2018-12-08T02:22:05.893Z,14.78
2018-12-08T02:22:38.493Z,8.68
2018-12-08T02:23:11.101Z,13.18
2018-12-08T02:23:43.745Z,9.95
2018-12-08T02:24:16.386Z,5.80
2018-12-08T02:24:49.022Z,8.50
2018-12-08T02:25:21.678Z,12.73
2018-12-08T02:25:54.288Z,9.23
2018-12-08T02:26:26.927Z,8.13
2018-12-08T02:26:59.569Z,8.58
2018-12-08T02:27:32.197Z,7.60
2018-12-08T02:28:04.849Z,10.68
2018-12-08T02:28:37.484Z,12.18
2018-12-08T02:29:10.123Z,10.72
2018-12-08T02:29:42.733Z,14.10
2018-12-08T02:30:15.462Z,7.65
2018-12-08T02:30:48.097Z,15.35
2018-12-08T02:31:20.711Z,14.87
2018-12-08T02:31:53.343Z,12.25
2018-12-08T02:32:25.986Z,16.10
2018-12-08T02:32:58.618Z,13.43
2018-12-08T02:33:31.255Z,11.25
2018-12-08T02:34:03.879Z,13.93
2018-12-08T02:34:36.531Z,10.98
2018-12-08T02:35:09.150Z,15.72
2018-12-08T02:35:41.757Z,13.08
2018-12-08T02:36:14.401Z,13.35
2018-12-08T02:36:47.023Z,10.00
2018-12-08T02:37:19.699Z,12.03
2018-12-08T02:37:52.358Z,8.60
2018-12-08T02:38:25.000Z,11.68
2018-12-08T02:38:57.641Z,9.03
2018-12-08T02:39:30.387Z,10.35
2018-12-08T02:40:03.490Z,13.48
2018-12-08T02:40:36.096Z,17.73
2018-12-08T02:41:08.704Z,11.85
2018-12-08T02:41:41.336Z,13.28
2018-12-08T02:42:13.969Z,20.70
2018-12-08T02:42:46.593Z,5.92
2018-12-08T02:43:19.213Z,8.73
2018-12-08T02:43:51.857Z,19.80
2018-12-08T02:44:24.439Z,14.58
2018-12-08T02:44:57.046Z,18.70
2018-12-08T02:45:29.655Z,13.13
2018-12-08T02:46:02.258Z,12.63
2018-12-08T02:46:34.841Z,18.35
2018-12-08T02:47:07.466Z,15.30
2018-12-08T02:47:40.061Z,13.10
2018-12-08T02:48:12.652Z,7.20
2018-12-08T02:48:45.276Z,17.85
2018-12-08T02:49:18.005Z,16.07
2018-12-08T02:49:50.654Z,14.90
2018-12-08T02:50:23.295Z,9.30
2018-12-08T02:50:55.924Z,10.38
2018-12-08T02:51:28.536Z,17.37
2018-12-08T02:52:01.496Z,12.98
2018-12-08T02:52:34.135Z,11.90
2018-12-08T02:53:06.764Z,17.67
2018-12-08T02:53:39.381Z,17.48
2018-12-08T02:54:11.997Z,11.28
2018-12-08T02:54:44.596Z,10.98
2018-12-08T02:55:17.193Z,8.55
2018-12-08T02:55:49.834Z,13.62
2018-12-08T02:56:22.616Z,15.93
2018-12-08T02:56:55.336Z,18.70
2018-12-08T02:57:27.945Z,15.50
2018-12-08T02:58:00.562Z,8.70
2018-12-08T02:58:33.163Z,11.03
2018-12-08T02:59:05.783Z,15.20
2018-12-08T02:59:38.422Z,14.50
2018-12-08T03:00:11.308Z,14.03
2018-12-08T03:00:43.923Z,17.42
2018-12-08T03:01:16.541Z,13.70
2018-12-08T03:01:49.195Z,16.00
2018-12-08T03:02:21.829Z,12.23
2018-12-08T03:02:54.429Z,11.38
2018-12-08T03:03:27.171Z,12.07
2018-12-08T03:03:59.799Z,20.10
2018-12-08T03:04:32.434Z,13.65
2018-12-08T03:05:05.458Z,11.68
2018-12-08T03:05:38.085Z,20.02
2018-12-08T03:06:10.710Z,10.53
2018-12-08T03:06:43.363Z,21.20
2018-12-08T03:07:16.019Z,10.15
2018-12-08T03:07:48.642Z,11.05
2018-12-08T03:08:21.269Z,17.80
2018-12-08T03:08:53.897Z,15.80
2018-12-08T03:09:26.522Z,14.95
2018-12-08T03:09:59.136Z,20.80
2018-12-08T03:10:31.797Z,12.93
2018-12-08T03:11:04.400Z,15.32
2018-12-08T03:11:37.009Z,8.93
2018-12-08T03:12:09.626Z,13.58
2018-12-08T03:12:42.298Z,8.50
2018-12-08T03:13:14.909Z,13.30
2018-12-08T03:13:47.540Z,15.98
2018-12-08T03:14:20.182Z,23.15
2018-12-08T03:14:52.792Z,17.05
2018-12-08T03:15:25.374Z,12.13
2018-12-08T03:15:57.982Z,18.12
2018-12-08T03:16:30.569Z,11.65
2018-12-08T03:17:03.285Z,14.13
2018-12-08T03:17:35.861Z,13.40
2018-12-08T03:18:08.481Z,15.35
2018-12-08T03:18:41.057Z,18.85
2018-12-08T03:19:13.663Z,14.13
2018-12-08T03:19:46.238Z,11.70
2018-12-08T03:20:18.818Z,24.00
2018-12-08T03:20:51.397Z,21.17
2018-12-08T03:21:23.987Z,24.15
2018-12-08T03:21:56.586Z,10.48
2018-12-08T03:22:29.202Z,17.02
2018-12-08T03:23:01.811Z,18.32
2018-12-08T03:23:34.434Z,13.20
2018-12-08T03:24:07.076Z,11.30
2018-12-08T03:24:39.677Z,13.40
2018-12-08T03:25:12.262Z,7.85
2018-12-08T03:25:44.870Z,14.53
2018-12-08T03:26:17.472Z,10.60
2018-12-08T03:26:50.067Z,14.05
2018-12-08T03:27:22.658Z,16.90
2018-12-08T03:27:55.258Z,13.75
2018-12-08T03:28:27.863Z,13.35
2018-12-08T03:29:00.474Z,14.98
2018-12-08T03:29:33.066Z,17.40
2018-12-08T03:30:05.979Z,10.50
2018-12-08T03:30:38.581Z,15.20
2018-12-08T03:31:11.188Z,10.58
2018-12-08T03:31:43.809Z,11.43
2018-12-08T03:32:16.386Z,18.60
2018-12-08T03:32:48.966Z,13.43
2018-12-08T03:33:21.665Z,11.33
2018-12-08T03:33:54.253Z,12.95
2018-12-08T03:34:26.887Z,11.97
2018-12-08T03:34:59.718Z,11.08
2018-12-08T03:35:32.316Z,18.00
2018-12-08T03:36:04.909Z,24.80
2018-12-08T03:36:37.505Z,15.65
2018-12-08T03:37:10.100Z,12.68
2018-12-08T03:37:42.717Z,12.63
2018-12-08T03:38:15.302Z,13.28
2018-12-08T03:38:47.899Z,12.25
2018-12-08T03:39:20.468Z,23.52
2018-12-08T03:39:53.096Z,9.35
2018-12-08T03:40:25.710Z,21.20
2018-12-08T03:40:58.426Z,20.40
2018-12-08T03:41:31.008Z,13.98
2018-12-08T03:42:03.731Z,12.55
2018-12-08T03:42:36.347Z,15.25
2018-12-08T03:43:08.946Z,9.98
2018-12-08T03:43:41.552Z,15.28
2018-12-08T03:44:14.145Z,14.07
2018-12-08T03:44:47.781Z,17.25
2018-12-08T03:45:20.810Z,12.33
2018-12-08T03:45:53.406Z,13.98
2018-12-08T03:46:25.989Z,12.00
2018-12-08T03:46:58.582Z,16.05
2018-12-08T03:47:31.178Z,10.65
2018-12-08T03:48:03.787Z,14.60
2018-12-08T03:48:36.403Z,17.90
2018-12-08T03:49:08.992Z,18.02
2018-12-08T03:49:41.594Z,10.35
2018-12-08T03:50:14.191Z,20.02
2018-12-08T03:50:46.837Z,16.60
2018-12-08T03:51:19.575Z,15.40
2018-12-08T03:51:52.170Z,19.05
2018-12-08T03:52:24.765Z,14.90
2018-12-08T03:52:57.337Z,16.95
2018-12-08T03:53:29.922Z,18.55
2018-12-08T03:54:02.622Z,11.57
2018-12-08T03:54:35.228Z,16.65
2018-12-08T03:55:07.959Z,15.40
2018-12-08T03:55:40.542Z,18.27
2018-12-08T03:56:13.191Z,14.03
2018-12-08T03:56:45.784Z,14.15
2018-12-08T03:57:18.361Z,12.93
2018-12-08T03:57:50.935Z,15.05
2018-12-08T03:58:23.519Z,9.00
2018-12-08T03:58:56.128Z,16.10
2018-12-08T03:59:28.722Z,12.55
2018-12-08T04:00:01.337Z,14.13
2018-12-08T04:00:33.940Z,11.90
2018-12-08T04:01:06.663Z,11.90
2018-12-08T04:01:39.280Z,19.92
2018-12-08T04:02:11.913Z,21.50
2018-12-08T04:02:44.511Z,18.32
2018-12-08T04:03:17.141Z,15.70
2018-12-08T04:03:49.933Z,14.58
2018-12-08T04:04:22.613Z,16.02
2018-12-08T04:04:55.249Z,10.60
2018-12-08T04:05:27.864Z,19.40
2018-12-08T04:06:00.501Z,16.70
2018-12-08T04:06:33.151Z,13.00
2018-12-08T04:07:05.828Z,11.55
2018-12-08T04:07:38.443Z,12.47
2018-12-08T04:08:11.069Z,12.73
2018-12-08T04:08:43.691Z,10.20
2018-12-08T04:09:16.321Z,17.85
2018-12-08T04:09:48.951Z,14.43
2018-12-08T04:10:21.602Z,14.58
2018-12-08T04:10:54.243Z,7.35
2018-12-08T04:11:26.879Z,17.65
2018-12-08T04:11:59.498Z,14.00
2018-12-08T04:12:32.138Z,18.50
2018-12-08T04:13:04.778Z,10.23
2018-12-08T04:13:37.394Z,15.50
2018-12-08T04:14:10.020Z,12.05
2018-12-08T04:14:42.646Z,15.43
2018-12-08T04:15:15.427Z,13.03
2018-12-08T04:15:48.042Z,14.45
2018-12-08T04:16:20.679Z,17.07
2018-12-08T04:16:53.284Z,10.98
2018-12-08T04:17:25.913Z,6.72
2018-12-08T04:17:58.557Z,19.98
2018-12-08T04:18:31.165Z,12.15
2018-12-08T04:19:03.803Z,20.40
2018-12-08T04:19:36.430Z,16.02
2018-12-08T04:20:09.088Z,14.53
2018-12-08T04:20:41.690Z,13.20
2018-12-08T04:21:14.274Z,11.12
2018-12-08T04:21:46.879Z,20.08
2018-12-08T04:22:19.502Z,15.53
2018-12-08T04:22:52.072Z,14.47
2018-12-08T04:23:24.696Z,22.32
2018-12-08T04:23:57.291Z,11.15
2018-12-08T04:24:29.882Z,16.60
2018-12-08T04:25:02.610Z,10.32
2018-12-08T04:25:35.208Z,11.08
2018-12-08T04:26:07.814Z,11.70
2018-12-08T04:26:40.430Z,13.65
2018-12-08T04:27:13.040Z,18.40
2018-12-08T04:27:45.624Z,18.00
2018-12-08T04:28:18.223Z,11.20
2018-12-08T04:28:50.862Z,10.00
2018-12-08T04:29:23.468Z,21.45
2018-12-08T04:29:56.071Z,12.53
2018-12-08T04:30:28.717Z,10.00
2018-12-08T04:31:01.319Z,15.70
2018-12-08T04:31:33.914Z,12.68
2018-12-08T04:32:06.655Z,16.75
2018-12-08T04:32:39.251Z,12.20
2018-12-08T04:33:11.826Z,10.80
2018-12-08T04:33:44.414Z,11.43
2018-12-08T04:34:17.029Z,19.40
2018-12-08T04:34:49.632Z,10.30
2018-12-08T04:35:22.233Z,18.05
2018-12-08T04:35:54.860Z,18.37
2018-12-08T04:36:27.604Z,6.62
2018-12-08T04:37:00.196Z,15.32
2018-12-08T04:37:32.779Z,9.90
2018-12-08T04:38:05.355Z,16.50
2018-12-08T04:38:37.971Z,11.18
2018-12-08T04:39:10.575Z,15.70
2018-12-08T04:39:43.208Z,14.63
2018-12-08T04:40:15.810Z,16.67
2018-12-08T04:40:48.404Z,16.35
2018-12-08T04:41:20.989Z,15.18
2018-12-08T04:41:53.561Z,12.25
2018-12-08T04:42:26.331Z,10.58
2018-12-08T04:42:58.930Z,14.87
2018-12-08T04:43:31.517Z,18.70
2018-12-08T04:44:04.150Z,14.95
2018-12-08T04:44:36.787Z,14.18
2018-12-08T04:45:09.457Z,12.47
2018-12-08T04:45:42.095Z,10.50
2018-12-08T04:46:14.744Z,19.15
2018-12-08T04:46:47.375Z,13.50
2018-12-08T04:47:19.998Z,11.55
2018-12-08T04:47:52.614Z,14.73
2018-12-08T04:48:25.233Z,10.30
2018-12-08T04:48:57.842Z,11.75
2018-12-08T04:49:30.407Z,12.18
2018-12-08T04:50:03.359Z,16.32
2018-12-08T04:50:35.981Z,9.38
2018-12-08T04:51:08.556Z,18.42
2018-12-08T04:51:41.135Z,18.62
2018-12-08T04:52:13.698Z,12.00
2018-12-08T04:52:46.287Z,16.12
2018-12-08T04:53:18.886Z,9.55
2018-12-08T04:53:51.472Z,17.12
2018-12-08T04:54:24.177Z,15.78
2018-12-08T04:54:56.837Z,10.28
2018-12-08T04:55:29.451Z,17.95
2018-12-08T04:56:02.074Z,11.33
2018-12-08T04:56:34.674Z,10.03
2018-12-08T04:57:07.267Z,16.57
2018-12-08T04:57:39.850Z,10.98
2018-12-08T04:58:12.447Z,12.68
2018-12-08T04:58:45.055Z,7.22
2018-12-08T04:59:17.638Z,12.70
2018-12-08T04:59:50.235Z,10.38
2018-12-08T05:00:22.827Z,14.80
2018-12-08T05:00:55.421Z,18.82
2018-12-08T05:01:28.029Z,13.62
2018-12-08T05:02:00.625Z,19.25
2018-12-08T05:02:33.249Z,18.82
2018-12-08T05:03:05.848Z,11.33
2018-12-08T05:03:38.446Z,13.20
2018-12-08T05:04:11.161Z,12.47
2018-12-08T05:04:43.898Z,19.07
2018-12-08T05:05:16.527Z,17.85
2018-12-08T05:05:49.124Z,13.70
2018-12-08T05:06:21.693Z,11.43
2018-12-08T05:06:54.319Z,12.63
2018-12-08T05:07:26.892Z,15.38
2018-12-08T05:07:59.463Z,12.70
2018-12-08T05:08:32.086Z,21.17
2018-12-08T05:09:06.408Z,11.97
2018-12-08T05:09:38.994Z,18.60
2018-12-08T05:10:11.580Z,8.28
2018-12-08T05:10:44.173Z,12.40
2018-12-08T05:11:16.759Z,12.63
2018-12-08T05:11:49.327Z,8.35
2018-12-08T05:12:21.917Z,11.15
2018-12-08T05:12:54.485Z,19.40
2018-12-08T05:13:27.106Z,15.03
2018-12-08T05:13:59.684Z,12.45
2018-12-08T05:14:32.294Z,14.25
2018-12-08T05:15:05.510Z,15.60
2018-12-08T05:15:38.117Z,17.82
2018-12-08T05:16:10.726Z,18.65
2018-12-08T05:16:43.446Z,13.70
2018-12-08T05:17:16.049Z,18.05
2018-12-08T05:17:48.810Z,13.08
2018-12-08T05:18:21.425Z,13.40
2018-12-08T05:18:54.094Z,9.23
2018-12-08T05:19:26.727Z,15.03
2018-12-08T05:19:59.349Z,11.43
2018-12-08T05:20:31.932Z,14.75
2018-12-08T05:21:04.586Z,11.83
2018-12-08T05:21:37.229Z,14.47
2018-12-08T05:22:09.875Z,9.50
2018-12-08T05:22:42.506Z,13.08
2018-12-08T05:23:15.167Z,21.05
2018-12-08T05:23:47.790Z,11.53
2018-12-08T05:24:20.427Z,14.95
2018-12-08T05:24:53.041Z,8.75
2018-12-08T05:25:25.668Z,20.82
2018-12-08T05:25:58.291Z,12.53
2018-12-08T05:26:30.917Z,28.35
2018-12-08T05:27:03.553Z,23.00
2018-12-08T05:27:36.195Z,22.00
2018-12-08T05:28:08.805Z,15.40
2018-12-08T05:28:41.466Z,9.73
2018-12-08T05:29:14.081Z,10.53
2018-12-08T05:29:46.719Z,11.88
2018-12-08T05:30:19.347Z,11.55
2018-12-08T05:30:51.987Z,11.97
2018-12-08T05:31:24.610Z,22.95
2018-12-08T05:31:57.250Z,13.50
2018-12-08T05:32:29.869Z,15.48
2018-12-08T05:33:02.481Z,12.58
2018-12-08T05:33:35.113Z,15.15
2018-12-08T05:34:07.745Z,10.00
2018-12-08T05:34:40.339Z,15.50
2018-12-08T05:35:12.945Z,15.10
2018-12-08T05:35:45.549Z,13.40
2018-12-08T05:36:18.149Z,20.15
2018-12-08T05:36:50.765Z,6.62
2018-12-08T05:37:23.374Z,11.85
2018-12-08T05:37:55.971Z,12.30
2018-12-08T05:38:28.566Z,9.43
2018-12-08T05:39:01.149Z,18.62
2018-12-08T05:39:33.756Z,28.57
2018-12-08T05:40:06.488Z,17.70
2018-12-08T05:40:39.082Z,17.25
2018-12-08T05:41:11.684Z,11.20
2018-12-08T05:41:44.324Z,9.98
2018-12-08T05:42:16.919Z,15.45
2018-12-08T05:42:49.510Z,11.38
2018-12-08T05:43:22.129Z,12.65
2018-12-08T05:43:54.725Z,20.32
2018-12-08T05:44:27.344Z,10.10
2018-12-08T05:44:59.963Z,11.85
2018-12-08T05:45:32.566Z,17.57
2018-12-08T05:46:05.173Z,19.90
2018-12-08T05:46:37.751Z,11.43
2018-12-08T05:47:10.323Z,10.23
2018-12-08T05:47:42.910Z,11.45
2018-12-08T05:48:15.495Z,28.42
2018-12-08T05:48:48.087Z,17.05
2018-12-08T05:49:20.680Z,9.63
2018-12-08T05:49:53.636Z,9.25
2018-12-08T05:50:29.689Z,9.00
2018-12-08T05:51:02.287Z,14.25
2018-12-08T05:51:34.858Z,11.95
2018-12-08T05:52:07.467Z,10.13
2018-12-08T05:52:40.062Z,10.70
2018-12-08T05:53:12.677Z,16.20
2018-12-08T05:53:45.262Z,11.73
2018-12-08T05:54:17.893Z,9.65
2018-12-08T05:54:50.609Z,16.35
2018-12-08T05:55:23.204Z,12.90
2018-12-08T05:55:55.835Z,10.60
2018-12-08T05:56:28.433Z,11.60
2018-12-08T05:57:01.012Z,13.05
2018-12-08T05:57:35.918Z,12.28
2018-12-08T05:58:08.544Z,8.08
2018-12-08T05:58:41.144Z,14.03
2018-12-08T05:59:13.756Z,17.98
2018-12-08T05:59:46.335Z,11.73
2018-12-08T06:00:19.463Z,17.37
2018-12-08T06:00:52.063Z,11.00
2018-12-08T06:01:24.820Z,15.78
2018-12-08T06:01:57.401Z,14.50
2018-12-08T06:02:30.002Z,15.18
2018-12-08T06:03:02.591Z,22.93
2018-12-08T06:03:35.344Z,15.70
2018-12-08T06:04:07.936Z,13.53
2018-12-08T06:04:40.630Z,11.88
2018-12-08T06:05:13.225Z,10.75
2018-12-08T06:05:45.812Z,10.32
2018-12-08T06:06:18.427Z,9.78
2018-12-08T06:06:51.049Z,9.10
2018-12-08T06:07:23.647Z,8.93
2018-12-08T06:07:56.234Z,9.70
2018-12-08T06:08:28.831Z,16.50
2018-12-08T06:09:01.427Z,14.93
2018-12-08T06:09:34.013Z,11.12
2018-12-08T06:10:06.743Z,13.10
2018-12-08T06:10:39.355Z,14.38
2018-12-08T06:11:11.961Z,6.67
2018-12-08T06:11:44.574Z,16.20
2018-12-08T06:12:17.202Z,12.50
2018-12-08T06:12:49.799Z,13.85
2018-12-08T06:13:22.398Z,12.37
2018-12-08T06:13:54.987Z,16.17
2018-12-08T06:14:27.587Z,15.20
2018-12-08T06:15:00.168Z,8.13
2018-12-08T06:15:32.775Z,15.13
2018-12-08T06:16:05.350Z,10.80
2018-12-08T06:16:37.934Z,13.43
2018-12-08T06:17:10.521Z,10.58
2018-12-08T06:17:43.138Z,9.55
2018-12-08T06:18:15.727Z,14.28
2018-12-08T06:18:48.307Z,9.13
2018-12-08T06:19:20.889Z,9.48
2018-12-08T06:19:53.464Z,9.50
2018-12-08T06:20:26.025Z,13.38
2018-12-08T06:20:58.623Z,10.93
2018-12-08T06:21:39.520Z,13.83
2018-12-08T06:22:12.102Z,10.78
2018-12-08T06:22:44.714Z,12.58
2018-12-08T06:23:17.344Z,11.73
2018-12-08T06:23:49.942Z,16.25
2018-12-08T06:24:22.541Z,16.02
2018-12-08T06:24:55.111Z,17.90
2018-12-08T06:25:30.261Z,10.60
2018-12-08T06:26:10.339Z,21.50
2018-12-08T06:26:50.389Z,9.95
2018-12-08T06:28:14.007Z,11.95
2018-12-08T06:28:49.246Z,13.62
2018-12-08T06:29:21.901Z,11.60
2018-12-08T06:29:54.501Z,8.65
2018-12-08T06:30:27.084Z,13.80
2018-12-08T06:30:59.773Z,11.22
2018-12-08T06:31:32.381Z,15.45
2018-12-08T06:32:04.969Z,16.20
2018-12-08T06:32:37.565Z,6.35
2018-12-08T06:33:10.162Z,8.78
2018-12-08T06:33:42.802Z,19.07
2018-12-08T06:34:15.363Z,12.25
2018-12-08T06:34:47.970Z,9.03
2018-12-08T06:35:20.563Z,10.15
2018-12-08T06:35:53.163Z,13.20
2018-12-08T06:36:25.769Z,13.43
2018-12-08T06:36:58.356Z,14.75
2018-12-08T06:37:30.975Z,7.28
2018-12-08T06:38:03.600Z,15.38
2018-12-08T06:38:36.182Z,15.00
2018-12-08T06:39:08.788Z,17.42
2018-12-08T06:39:41.383Z,10.10
2018-12-08T06:40:13.990Z,12.23
2018-12-08T06:40:46.684Z,12.82
2018-12-08T06:41:19.268Z,16.40
2018-12-08T06:41:51.870Z,11.60
2018-12-08T06:42:24.582Z,13.28
2018-12-08T06:42:57.190Z,7.78
2018-12-08T06:43:29.779Z,17.23
2018-12-08T06:44:02.389Z,8.40
2018-12-08T06:44:34.989Z,11.78
2018-12-08T06:45:07.739Z,15.72
2018-12-08T06:45:40.317Z,12.43
2018-12-08T06:46:12.912Z,21.02
2018-12-08T06:46:45.516Z,11.20
2018-12-08T06:47:18.126Z,9.50
2018-12-08T06:47:50.705Z,16.25
2018-12-08T06:48:23.652Z,14.93
2018-12-08T06:48:56.229Z,10.38
2018-12-08T06:49:28.818Z,13.08
2018-12-08T06:50:01.436Z,8.95
2018-12-08T06:50:34.159Z,8.75
2018-12-08T06:51:06.774Z,7.20
2018-12-08T06:51:39.389Z,9.48
2018-12-08T06:52:11.982Z,9.03
2018-12-08T06:52:44.565Z,7.35
2018-12-08T06:53:17.180Z,11.43
2018-12-08T06:53:49.774Z,10.15
2018-12-08T06:54:22.377Z,15.58
2018-12-08T06:54:54.976Z,9.40
2018-12-08T06:55:27.603Z,7.62
2018-12-08T06:56:00.206Z,9.50
2018-12-08T06:56:32.785Z,8.58
2018-12-08T06:57:05.392Z,10.43
2018-12-08T06:57:37.967Z,7.30
2018-12-08T06:58:10.561Z,8.95
2018-12-08T06:58:43.149Z,8.55
2018-12-08T06:59:15.731Z,8.25
2018-12-08T06:59:48.310Z,8.70
2018-12-08T07:00:20.906Z,12.88
2018-12-08T07:00:53.650Z,10.68
2018-12-08T07:01:26.256Z,7.95
2018-12-08T07:01:58.842Z,7.28
2018-12-08T07:02:31.416Z,9.38
2018-12-08T07:03:04.038Z,12.50
2018-12-08T07:03:36.624Z,5.03
2018-12-08T07:04:09.193Z,9.63
2018-12-08T07:04:41.888Z,9.13
2018-12-08T07:05:14.457Z,12.43
2018-12-08T07:05:47.049Z,5.83
2018-12-08T07:06:19.690Z,9.43
2018-12-08T07:06:52.294Z,12.07
2018-12-08T07:07:24.873Z,14.75
2018-12-08T07:07:57.487Z,12.88
2018-12-08T07:08:30.090Z,16.20